Time;durP1;ratioP1;P1;durP2;ratioP2;P2;SDS_P1;SDS_P2;PMS_P1;PMS_P2;Temp;Humidity;BMP_temperature;BMP_pressure;BME280_temperature;BME280_humidity;BME280_pressure;Samples;Min_cycle;Max_cycle;Signal;HPM_P1;HPM_P2
2023/03/03 00:01:45;;;;;;;59.27;55.70;;;;;;;0.37;100.00;102439.59;4998472;28;20458;-44
2023/03/03 00:04:13;;;;;;;60.23;56.67;;;;;;;0.33;100.00;102440.72;4997943;28;20470;-46
2023/03/03 00:06:41;;;;;;;60.70;57.00;;;;;;;0.29;100.00;102441.81;4998480;28;20426;-44
2023/03/03 00:09:08;;;;;;;66.83;63.13;;;;;;;0.26;100.00;102437.59;4998936;28;20434;-44
2023/03/03 00:11:36;;;;;;;75.40;71.00;;;;;;;0.25;100.00;102435.06;4998771;28;20449;-43
2023/03/03 00:14:19;;;;;;;68.07;64.27;;;;;;;0.20;100.00;102439.72;4997520;28;20465;-47
2023/03/03 00:16:48;;;;;;;71.53;67.00;;;;;;;0.17;100.00;102438.13;4998552;28;20475;-45
2023/03/03 00:19:19;;;;;;;70.17;66.27;;;;;;;0.12;100.00;102442.78;4998442;28;20438;-45
2023/03/03 00:21:48;;;;;;;68.83;64.33;;;;;;;0.06;100.00;102445.75;5000072;28;20460;-46
2023/03/03 00:24:22;;;;;;;64.83;60.90;;;;;;;0.01;100.00;102453.03;5001210;28;20480;-46
2023/03/03 00:26:51;;;;;;;64.53;60.63;;;;;;;-0.05;100.00;102445.53;5002003;28;20430;-44
2023/03/03 00:29:29;;;;;;;64.73;60.77;;;;;;;-0.09;100.00;102442.22;5001981;28;20442;-45
2023/03/03 00:32:09;;;;;;;64.70;60.73;;;;;;;-0.16;100.00;102440.06;5001431;28;20449;-44
2023/03/03 00:34:37;;;;;;;64.13;60.50;;;;;;;-0.13;100.00;102442.50;5001481;28;20520;-44
2023/03/03 00:37:23;;;;;;;65.17;61.47;;;;;;;-0.13;100.00;102445.97;5001760;28;20512;-45
2023/03/03 00:39:50;;;;;;;64.07;60.13;;;;;;;-0.11;100.00;102443.25;5002071;28;20441;-44
2023/03/03 00:42:19;;;;;;;61.60;58.00;;;;;;;-0.15;100.00;102442.56;5001467;28;20968;-44
2023/03/03 00:44:48;;;;;;;61.00;57.57;;;;;;;-0.17;100.00;102443.59;5001320;28;20477;-44
2023/03/03 00:47:26;;;;;;;64.27;60.83;;;;;;;-0.11;100.00;102443.25;5001669;28;20460;-44
2023/03/03 00:50:41;;;;;;;65.87;62.17;;;;;;;-0.11;100.00;102454.59;5001968;28;20437;-43
2023/03/03 00:53:13;;;;;;;64.30;60.90;;;;;;;-0.10;100.00;102447.56;4978535;28;20820;-46
2023/03/03 00:55:41;;;;;;;65.20;62.00;;;;;;;-0.05;100.00;102448.16;4982123;28;20435;-49
2023/03/03 00:58:08;;;;;;;69.97;66.37;;;;;;;0.05;100.00;102446.69;4981595;28;20485;-46
2023/03/03 01:00:38;;;;;;;78.87;75.10;;;;;;;0.14;100.00;102451.41;4982206;28;20805;-49
2023/03/03 01:03:08;;;;;;;75.80;72.10;;;;;;;0.19;100.00;102440.66;4981888;28;20473;-48
2023/03/03 01:05:36;;;;;;;73.20;69.70;;;;;;;0.25;100.00;102451.63;4981609;28;20872;-48
2023/03/03 01:08:05;;;;;;;80.30;75.63;;;;;;;0.27;100.00;102436.66;4982063;28;20441;-44
2023/03/03 01:10:35;;;;;;;80.27;76.50;;;;;;;0.35;100.00;102444.94;4981500;28;20472;-50
2023/03/03 01:13:04;;;;;;;76.50;73.00;;;;;;;0.41;100.00;102441.09;4981095;28;20474;-49
2023/03/03 01:15:32;;;;;;;77.20;73.60;;;;;;;0.41;100.00;102436.72;4981350;28;20434;-44
2023/03/03 01:18:01;;;;;;;87.30;83.40;;;;;;;0.42;100.00;102438.38;4981369;28;20482;-46
2023/03/03 01:20:28;;;;;;;81.53;77.77;;;;;;;0.40;100.00;102442.03;4982202;28;20485;-47
2023/03/03 01:22:56;;;;;;;79.63;75.70;;;;;;;0.42;100.00;102443.63;4981917;28;20455;-43
2023/03/03 01:25:24;;;;;;;83.33;79.50;;;;;;;0.46;100.00;102439.91;4982076;28;20442;-46
2023/03/03 01:27:52;;;;;;;81.97;78.57;;;;;;;0.47;100.00;102427.63;4981988;28;20538;-46
2023/03/03 01:30:19;;;;;;;85.93;82.53;;;;;;;0.54;100.00;102421.06;4981330;28;20431;-47
2023/03/03 01:32:47;;;;;;;87.47;84.03;;;;;;;0.63;100.00;102419.69;4981564;28;20446;-43
2023/03/03 01:35:16;;;;;;;101.90;97.90;;;;;;;0.79;100.00;102409.94;4981361;28;20431;-49
2023/03/03 01:37:44;;;;;;;94.50;90.80;;;;;;;0.86;100.00;102414.72;4981649;28;20475;-48
2023/03/03 01:40:15;;;;;;;91.40;87.77;;;;;;;0.91;100.00;102411.81;4981467;28;20443;-51
2023/03/03 01:42:43;;;;;;;97.03;93.33;;;;;;;0.91;100.00;102411.81;4981225;28;20467;-46
2023/03/03 01:45:15;;;;;;;97.23;93.23;;;;;;;0.90;100.00;102404.84;4981306;28;20443;-49
2023/03/03 01:47:48;;;;;;;97.40;93.23;;;;;;;0.80;100.00;102407.22;4981341;28;20433;-45
2023/03/03 01:50:26;;;;;;;95.87;91.73;;;;;;;0.70;100.00;102405.22;4981950;28;20473;-47
2023/03/03 01:52:55;;;;;;;97.13;92.93;;;;;;;0.59;100.00;102399.78;4980822;28;20471;-47
2023/03/03 01:55:28;;;;;;;93.63;89.90;;;;;;;0.48;100.00;102396.03;4980951;28;20493;-44
2023/03/03 01:58:00;;;;;;;86.90;83.20;;;;;;;0.40;100.00;102394.78;4980240;28;20474;-44
2023/03/03 02:00:30;;;;;;;83.37;79.87;;;;;;;0.32;100.00;102394.41;4981491;28;20431;-47
2023/03/03 02:02:57;;;;;;;79.37;76.03;;;;;;;0.25;100.00;102398.31;4980075;28;20462;-45
2023/03/03 02:05:27;;;;;;;75.93;72.73;;;;;;;0.23;100.00;102408.06;4980343;28;20435;-47
2023/03/03 02:07:55;;;;;;;80.57;77.07;;;;;;;0.22;100.00;102401.13;4980846;28;20437;-46
2023/03/03 02:10:23;;;;;;;81.87;78.03;;;;;;;0.20;100.00;102408.25;4980979;28;20467;-44
2023/03/03 02:12:53;;;;;;;79.40;76.00;;;;;;;0.21;100.00;102415.19;4980326;28;20455;-46
2023/03/03 02:15:22;;;;;;;84.40;80.83;;;;;;;0.18;100.00;102418.00;4979719;28;20441;-44
2023/03/03 02:17:53;;;;;;;83.60;80.00;;;;;;;0.20;100.00;102416.13;4980441;28;20474;-46
2023/03/03 02:20:35;;;;;;;90.47;86.53;;;;;;;0.21;100.00;102415.19;4980061;28;20426;-47
2023/03/03 02:23:11;;;;;;;88.27;84.60;;;;;;;0.22;100.00;102419.47;4978846;28;20462;-45
2023/03/03 02:25:49;;;;;;;88.93;85.40;;;;;;;0.29;100.00;102419.06;4980037;28;20442;-44
2023/03/03 02:28:18;;;;;;;94.20;90.40;;;;;;;0.39;100.00;102422.81;4979797;28;20431;-45
2023/03/03 02:30:46;;;;;;;99.87;95.43;;;;;;;0.47;100.00;102425.84;4980553;28;20430;-44
2023/03/03 02:33:14;;;;;;;103.23;99.13;;;;;;;0.50;100.00;102423.03;4979543;28;20988;-44
2023/03/03 02:35:42;;;;;;;103.00;98.97;;;;;;;0.51;100.00;102411.59;4979828;28;20438;-44
2023/03/03 02:38:19;;;;;;;113.10;108.80;;;;;;;0.48;100.00;102409.16;4979762;28;20474;-52
2023/03/03 02:40:59;;;;;;;111.40;107.13;;;;;;;0.46;100.00;102403.16;4980215;28;20435;-47
2023/03/03 02:43:36;;;;;;;111.77;107.53;;;;;;;0.41;100.00;102399.97;4979495;28;20478;-46
2023/03/03 02:46:04;;;;;;;109.93;105.80;;;;;;;0.38;100.00;102397.53;4979692;28;20486;-44
2023/03/03 02:48:31;;;;;;;111.80;107.57;;;;;;;0.35;100.00;102392.44;4979202;28;20525;-46
2023/03/03 02:50:59;;;;;;;116.60;111.70;;;;;;;0.27;100.00;102392.03;4979473;28;20489;-46
2023/03/03 02:53:27;;;;;;;106.73;101.93;;;;;;;0.18;100.00;102397.00;4978938;28;20477;-48
2023/03/03 02:55:55;;;;;;;110.97;106.67;;;;;;;0.10;100.00;102392.19;4979539;28;20438;-45
2023/03/03 02:58:22;;;;;;;112.17;107.87;;;;;;;0.05;100.00;102389.00;4979741;28;20481;-45
2023/03/03 03:00:51;;;;;;;113.40;109.03;;;;;;;0.02;100.00;102385.69;4980301;28;20435;-44
2023/03/03 03:03:19;;;;;;;117.77;113.17;;;;;;;-0.01;100.00;102384.09;4979045;28;20459;-44
2023/03/03 03:05:47;;;;;;;116.17;111.47;;;;;;;-0.02;100.00;102379.78;4979379;28;20434;-49
2023/03/03 03:08:15;;;;;;;113.20;108.70;;;;;;;-0.02;100.00;102382.41;4979154;28;20442;-44
2023/03/03 03:10:42;;;;;;;109.07;104.70;;;;;;;-0.10;100.00;102385.50;4979414;28;20952;-45
2023/03/03 03:13:10;;;;;;;105.70;101.60;;;;;;;-0.17;100.00;102383.28;4979156;28;20467;-49
2023/03/03 03:15:39;;;;;;;108.67;104.47;;;;;;;-0.27;100.00;102382.97;4978667;28;20431;-44
2023/03/03 03:18:08;;;;;;;99.43;95.33;;;;;;;-0.35;100.00;102389.56;4979828;28;20443;-44
2023/03/03 03:20:36;;;;;;;97.13;93.10;;;;;;;-0.42;100.00;102390.88;4979336;28;20489;-47
2023/03/03 03:23:04;;;;;;;100.50;96.30;;;;;;;-0.46;100.00;102382.31;4978627;28;20459;-43
2023/03/03 03:25:32;;;;;;;109.27;104.87;;;;;;;-0.47;100.00;102378.00;4979345;28;20441;-43
2023/03/03 03:27:59;;;;;;;119.33;114.63;;;;;;;-0.43;100.00;102381.31;4978775;28;20478;-49
2023/03/03 03:30:27;;;;;;;130.30;125.40;;;;;;;-0.35;100.00;102382.56;4979438;28;20435;-49
2023/03/03 03:32:55;;;;;;;137.23;131.60;;;;;;;-0.30;100.00;102377.88;4978502;28;20505;-44
2023/03/03 03:35:24;;;;;;;145.80;140.50;;;;;;;-0.20;100.00;102375.59;4977970;28;20437;-48
2023/03/03 03:37:52;;;;;;;157.97;151.93;;;;;;;-0.11;100.00;102362.81;4979266;28;20454;-47
2023/03/03 03:40:19;;;;;;;185.23;177.20;;;;;;;0.05;100.00;102361.91;4978598;28;20474;-48
2023/03/03 03:42:47;;;;;;;196.27;188.23;;;;;;;0.15;100.00;102360.47;4978806;28;20459;-46
2023/03/03 03:45:14;;;;;;;218.90;210.10;;;;;;;0.24;100.00;102370.41;4978373;28;20458;-45
2023/03/03 03:47:42;;;;;;;224.63;213.63;;;;;;;0.35;100.00;102370.59;4978693;28;20446;-44
2023/03/03 03:50:10;;;;;;;251.03;233.53;;;;;;;0.42;100.00;102370.13;4979163;28;20445;-44
2023/03/03 03:52:39;;;;;;;259.33;246.70;;;;;;;0.51;100.00;102368.75;4978792;28;20470;-49
2023/03/03 03:55:08;;;;;;;287.60;269.57;;;;;;;0.61;100.00;102374.28;4977741;28;20475;-44
2023/03/03 03:57:36;;;;;;;316.97;286.30;;;;;;;0.68;100.00;102365.13;4979261;28;20438;-43
2023/03/03 04:00:04;;;;;;;305.20;286.03;;;;;;;0.83;100.00;102361.53;4979852;28;20466;-46
2023/03/03 04:02:32;;;;;;;307.77;288.53;;;;;;;0.90;100.00;102373.34;4978801;28;20976;-45
2023/03/03 04:05:00;;;;;;;296.50;283.37;;;;;;;0.93;100.00;102373.16;4978435;28;20545;-43
2023/03/03 04:07:28;;;;;;;286.93;276.40;;;;;;;0.96;100.00;102373.81;4978346;28;20894;-45
2023/03/03 04:09:56;;;;;;;285.60;274.53;;;;;;;0.95;100.00;102369.53;4978607;28;20427;-44
2023/03/03 04:12:24;;;;;;;308.17;293.67;;;;;;;0.97;100.00;102361.53;4978603;28;20450;-46
2023/03/03 04:14:52;;;;;;;290.90;279.43;;;;;;;0.95;100.00;102368.66;4977431;28;20467;-46
2023/03/03 04:17:23;;;;;;;282.87;273.23;;;;;;;0.92;100.00;102366.22;4979192;28;20767;-49
2023/03/03 04:19:52;;;;;;;280.60;270.17;;;;;;;0.90;100.00;102374.19;4979125;28;20508;-44
2023/03/03 04:22:21;;;;;;;283.87;270.47;;;;;;;0.90;100.00;102370.72;4978634;28;20459;-50
2023/03/03 04:24:48;;;;;;;291.80;279.57;;;;;;;0.88;100.00;102372.59;4978472;28;20480;-46
2023/03/03 04:27:17;;;;;;;289.87;276.70;;;;;;;0.93;100.00;102381.03;4978924;28;20488;-45
2023/03/03 04:29:45;;;;;;;296.23;285.50;;;;;;;0.97;100.00;102383.41;4978840;28;20825;-46
2023/03/03 04:32:13;;;;;;;294.53;282.57;;;;;;;1.02;100.00;102396.22;4978465;28;20459;-45
2023/03/03 04:34:40;;;;;;;278.73;268.50;;;;;;;1.03;100.00;102390.03;4978197;28;20458;-45
2023/03/03 04:37:08;;;;;;;276.53;267.23;;;;;;;1.00;100.00;102387.59;4978706;28;20431;-43
2023/03/03 04:39:36;;;;;;;269.50;259.80;;;;;;;0.92;100.00;102384.63;4978127;28;20474;-43
2023/03/03 04:42:04;;;;;;;260.33;251.30;;;;;;;0.84;100.00;102378.97;4978150;28;20885;-49
2023/03/03 04:44:33;;;;;;;234.83;227.13;;;;;;;0.80;100.00;102367.00;4977792;28;20466;-43
2023/03/03 04:47:01;;;;;;;228.50;221.03;;;;;;;0.76;100.00;102358.44;4994074;28;20430;-44
2023/03/03 04:49:29;;;;;;;209.00;201.90;;;;;;;0.73;100.00;102360.41;4996823;28;20501;-47
2023/03/03 04:51:57;;;;;;;185.80;179.20;;;;;;;0.66;100.00;102344.19;4995408;28;20481;-45
2023/03/03 04:54:24;;;;;;;188.17;180.70;;;;;;;0.57;100.00;102337.72;4997036;28;20466;-50
2023/03/03 04:56:52;;;;;;;160.33;154.23;;;;;;;0.51;100.00;102337.25;4996110;28;20448;-44
2023/03/03 04:59:19;;;;;;;150.10;144.07;;;;;;;0.46;100.00;102345.41;4997807;28;20480;-45
2023/03/03 05:01:49;;;;;;;139.90;132.97;;;;;;;0.40;100.00;102364.16;4998138;28;20485;-43
2023/03/03 05:04:17;;;;;;;129.50;124.27;;;;;;;0.34;100.00;102367.13;4996901;28;20496;-46
2023/03/03 05:06:45;;;;;;;122.30;116.90;;;;;;;0.28;100.00;102369.28;4997887;28;20460;-45
2023/03/03 05:09:12;;;;;;;120.50;115.03;;;;;;;0.22;100.00;102370.47;5000962;28;20433;-45
2023/03/03 05:11:40;;;;;;;124.07;116.20;;;;;;;0.15;100.00;102377.00;5001105;28;20446;-44
2023/03/03 05:14:08;;;;;;;115.57;107.50;;;;;;;0.07;100.00;102381.03;5000480;28;20465;-44
2023/03/03 05:16:36;;;;;;;156.83;106.20;;;;;;;-0.02;100.00;102375.38;5001327;28;20440;-43
2023/03/03 05:19:05;;;;;;;404.83;147.37;;;;;;;-0.09;100.00;102379.28;5000639;28;20438;-44
2023/03/03 05:21:33;;;;;;;152.50;106.93;;;;;;;-0.17;100.00;102380.66;5001103;28;20458;-46
2023/03/03 05:24:03;;;;;;;235.43;120.70;;;;;;;-0.24;100.00;102379.34;5000780;28;20496;-45
2023/03/03 05:26:31;;;;;;;219.03;121.27;;;;;;;-0.33;100.00;102385.94;5001057;28;20430;-44
2023/03/03 05:28:58;;;;;;;307.63;132.13;;;;;;;-0.38;100.00;102377.50;5000689;28;20910;-43
2023/03/03 05:31:26;;;;;;;113.90;103.40;;;;;;;-0.41;100.00;102369.78;5000572;28;20464;-47
2023/03/03 05:33:54;;;;;;;279.10;125.93;;;;;;;-0.44;100.00;102382.22;4999952;28;20532;-43
2023/03/03 05:36:23;;;;;;;261.47;127.60;;;;;;;-0.48;100.00;102378.97;5000181;28;20437;-43
2023/03/03 05:38:51;;;;;;;371.50;144.57;;;;;;;-0.50;100.00;102382.56;5000493;28;20438;-46
2023/03/03 05:41:19;;;;;;;107.60;96.90;;;;;;;-0.53;100.00;102377.50;5000288;28;20469;-44
2023/03/03 05:43:47;;;;;;;201.00;120.17;;;;;;;-0.54;100.00;102383.69;5000081;28;20466;-44
2023/03/03 05:46:14;;;;;;;194.47;120.20;;;;;;;-0.55;100.00;102374.97;5000101;28;20434;-44
2023/03/03 05:48:42;;;;;;;229.67;138.90;;;;;;;-0.53;100.00;102388.81;5000481;28;20434;-46
2023/03/03 05:51:10;;;;;;;159.33;143.40;;;;;;;-0.49;100.00;102390.34;5000270;28;20444;-47
2023/03/03 05:53:39;;;;;;;149.60;140.13;;;;;;;-0.43;100.00;102386.53;5000298;28;20550;-43
2023/03/03 05:56:07;;;;;;;166.13;149.07;;;;;;;-0.40;100.00;102383.75;5000567;28;20445;-43
2023/03/03 05:58:36;;;;;;;168.63;153.30;;;;;;;-0.37;100.00;102384.44;5000657;28;20441;-43
2023/03/03 06:01:04;;;;;;;186.17;166.27;;;;;;;-0.35;100.00;102386.94;5000670;28;20497;-43
2023/03/03 06:03:32;;;;;;;189.23;172.30;;;;;;;-0.33;100.00;102395.59;5000336;28;20462;-46
2023/03/03 06:05:59;;;;;;;191.63;174.20;;;;;;;-0.31;100.00;102393.72;5000128;28;20820;-47
2023/03/03 06:08:28;;;;;;;183.57;172.33;;;;;;;-0.29;100.00;102390.06;5000631;28;20532;-46
2023/03/03 06:10:57;;;;;;;177.23;165.53;;;;;;;-0.27;100.00;102392.63;5000179;28;20457;-43
2023/03/03 06:13:25;;;;;;;170.93;161.40;;;;;;;-0.27;100.00;102390.00;4999039;28;21023;-45
2023/03/03 06:15:52;;;;;;;166.13;158.13;;;;;;;-0.27;100.00;102388.19;5000098;28;20438;-46
2023/03/03 06:18:20;;;;;;;178.27;170.60;;;;;;;-0.24;100.00;102385.41;5000608;28;20426;-46
2023/03/03 06:20:51;;;;;;;182.00;172.47;;;;;;;-0.23;100.00;102394.97;5000187;28;20483;-46
2023/03/03 06:23:19;;;;;;;191.53;183.13;;;;;;;-0.20;100.00;102404.44;4999904;28;20453;-48
2023/03/03 06:25:47;;;;;;;206.33;197.67;;;;;;;-0.15;100.00;102394.56;5000018;28;20441;-46
2023/03/03 06:28:16;;;;;;;203.63;195.90;;;;;;;-0.08;100.00;102393.25;4999967;28;20517;-44
2023/03/03 06:30:43;;;;;;;209.50;201.83;;;;;;;-0.01;100.00;102407.72;5000952;28;21002;-44
2023/03/03 06:33:11;;;;;;;208.97;201.37;;;;;;;0.04;100.00;102400.41;4999174;28;20466;-48
2023/03/03 06:35:39;;;;;;;228.63;220.67;;;;;;;0.11;100.00;102403.53;5000306;28;20434;-48
2023/03/03 06:38:07;;;;;;;235.43;227.03;;;;;;;0.16;100.00;102401.47;4999629;28;20449;-48
2023/03/03 06:40:34;;;;;;;243.33;234.43;;;;;;;0.21;100.00;102400.28;5000327;28;20546;-45
2023/03/03 06:43:03;;;;;;;248.53;240.00;;;;;;;0.27;100.00;102391.22;4999277;28;20450;-47
2023/03/03 06:45:32;;;;;;;244.57;235.83;;;;;;;0.31;100.00;102396.19;4999907;28;20777;-51
2023/03/03 06:47:59;;;;;;;257.90;249.00;;;;;;;0.34;100.00;102385.50;4999560;28;20461;-46
2023/03/03 06:50:27;;;;;;;252.77;243.97;;;;;;;0.39;100.00;102396.56;4999634;28;20430;-44
2023/03/03 06:53:02;;;;;;;254.67;246.03;;;;;;;0.45;100.00;102397.97;4998392;28;20462;-45
2023/03/03 06:55:30;;;;;;;257.30;248.47;;;;;;;0.50;100.00;102396.78;4998968;28;21309;-44
2023/03/03 06:57:59;;;;;;;271.10;261.83;;;;;;;0.53;100.00;102395.75;4998697;28;20857;-43
2023/03/03 07:00:28;;;;;;;258.90;249.90;;;;;;;0.59;100.00;102378.78;4997880;28;20485;-44
2023/03/03 07:03:02;;;;;;;264.73;255.57;;;;;;;0.65;100.00;102375.81;4997636;28;20466;-44
2023/03/03 07:05:30;;;;;;;256.60;247.93;;;;;;;0.71;100.00;102383.31;4998210;28;20426;-43
2023/03/03 07:07:58;;;;;;;254.73;246.17;;;;;;;0.67;100.00;102385.25;4998584;28;20446;-43
2023/03/03 07:10:27;;;;;;;257.10;248.40;;;;;;;0.70;100.00;102389.47;4998558;28;20777;-44
2023/03/03 07:13:02;;;;;;;265.00;256.13;;;;;;;0.76;100.00;102397.00;4997788;28;20464;-43
2023/03/03 07:15:34;;;;;;;260.00;251.30;;;;;;;0.87;100.00;102394.53;4998353;28;20533;-45
2023/03/03 07:18:08;;;;;;;265.07;256.17;;;;;;;0.96;100.00;102396.59;4998666;28;20433;-44
2023/03/03 07:20:39;;;;;;;263.90;254.47;;;;;;;1.03;100.00;102398.78;4998610;28;20812;-43
2023/03/03 07:23:19;;;;;;;267.93;258.97;;;;;;;1.10;100.00;102383.47;4997559;28;20464;-44
2023/03/03 07:25:47;;;;;;;267.30;258.27;;;;;;;1.19;100.00;102387.31;4997898;28;20429;-43
2023/03/03 07:28:22;;;;;;;264.93;256.07;;;;;;;1.32;100.00;102382.94;4998297;28;20434;-45
2023/03/03 07:30:50;;;;;;;262.37;253.30;;;;;;;1.40;100.00;102375.44;4997520;28;20801;-43
2023/03/03 07:33:26;;;;;;;271.00;262.10;;;;;;;1.47;100.00;102381.97;4997142;28;20839;-43
2023/03/03 07:35:56;;;;;;;281.03;271.47;;;;;;;1.59;100.00;102374.16;4998245;28;20438;-46
2023/03/03 07:38:30;;;;;;;266.97;257.60;;;;;;;1.64;100.00;102369.44;4997992;28;20474;-44
2023/03/03 07:41:00;;;;;;;272.13;262.33;;;;;;;1.82;100.00;102371.81;4997947;28;20536;-43
2023/03/03 07:43:36;;;;;;;255.47;246.97;;;;;;;1.92;100.00;102367.63;4997386;28;20910;-45
2023/03/03 07:46:21;;;;;;;257.50;248.90;;;;;;;2.03;100.00;102373.88;4997891;28;20425;-44
2023/03/03 07:48:52;;;;;;;261.30;252.60;;;;;;;2.14;100.00;102373.16;4998136;28;20457;-44
2023/03/03 07:51:24;;;;;;;249.53;241.13;;;;;;;2.29;100.00;102374.78;4997849;28;20469;-44
2023/03/03 07:53:52;;;;;;;250.07;241.87;;;;;;;2.46;100.00;102378.88;4997318;28;20457;-43
2023/03/03 07:56:29;;;;;;;240.97;233.03;;;;;;;2.63;100.00;102379.41;4998327;28;20440;-44
2023/03/03 07:58:58;;;;;;;235.57;227.60;;;;;;;2.73;100.00;102377.84;4998172;28;20433;-44
2023/03/03 08:01:38;;;;;;;232.03;224.53;;;;;;;2.93;100.00;102373.81;4997965;28;20505;-44
2023/03/03 08:04:18;;;;;;;226.10;218.50;;;;;;;3.08;100.00;102383.25;4997365;28;21198;-44
2023/03/03 08:06:49;;;;;;;221.10;213.90;;;;;;;3.21;100.00;102383.25;4997901;28;20434;-47
2023/03/03 08:09:34;;;;;;;218.90;212.00;;;;;;;3.30;100.00;102385.22;4997858;28;20441;-46
2023/03/03 08:12:18;;;;;;;204.17;197.07;;;;;;;3.37;100.00;102388.28;4998523;28;20493;-44
2023/03/03 08:14:47;;;;;;;214.23;206.93;;;;;;;3.35;100.00;102393.63;4996996;28;20466;-46
2023/03/03 08:17:20;;;;;;;204.90;198.00;;;;;;;3.42;100.00;102389.63;4998134;28;20444;-45
2023/03/03 08:19:51;;;;;;;201.50;194.80;;;;;;;3.50;100.00;102391.69;4998168;28;20449;-44
2023/03/03 08:22:24;;;;;;;197.23;190.30;;;;;;;3.57;100.00;102385.03;4997620;28;20868;-44
2023/03/03 08:24:52;;;;;;;195.10;188.13;;;;;;;3.67;100.00;102383.41;4997174;28;20466;-45
2023/03/03 08:27:20;;;;;;;195.33;188.63;;;;;;;3.67;100.00;102381.63;4998265;28;21159;-43
2023/03/03 08:29:48;;;;;;;185.73;179.33;;;;;;;3.75;100.00;102392.44;4997766;28;20534;-45
2023/03/03 08:32:16;;;;;;;185.30;178.97;;;;;;;3.72;100.00;102374.22;4997700;28;20457;-45
2023/03/03 08:34:44;;;;;;;178.37;172.07;;;;;;;3.75;100.00;102378.41;4996666;28;21004;-46
2023/03/03 08:37:13;;;;;;;173.70;167.50;;;;;;;3.77;100.00;102379.97;4997738;28;20430;-43
2023/03/03 08:39:41;;;;;;;171.30;165.23;;;;;;;3.78;100.00;102386.09;4997882;28;20492;-44
2023/03/03 08:42:09;;;;;;;157.63;152.03;;;;;;;3.83;100.00;102383.97;4998547;28;20509;-46
2023/03/03 08:44:37;;;;;;;148.07;142.57;;;;;;;3.89;100.00;102388.78;5000421;28;20470;-44
2023/03/03 08:47:04;;;;;;;146.87;141.30;;;;;;;4.07;100.00;102376.88;5000522;28;20444;-46
2023/03/03 08:49:32;;;;;;;126.67;121.97;;;;;;;4.19;100.00;102375.09;5001125;28;20445;-44
2023/03/03 08:52:00;;;;;;;115.83;111.33;;;;;;;4.29;100.00;102371.66;5000922;28;20461;-44
2023/03/03 08:54:29;;;;;;;112.43;108.10;;;;;;;4.44;100.00;102370.50;5000443;28;20472;-44
2023/03/03 08:56:57;;;;;;;90.20;86.20;;;;;;;4.53;100.00;102370.75;5001362;28;20437;-44
2023/03/03 08:59:24;;;;;;;92.00;87.83;;;;;;;4.66;100.00;102371.50;5001456;28;20433;-47
2023/03/03 09:01:52;;;;;;;83.03;79.43;;;;;;;4.68;100.00;102373.06;5001203;28;20554;-44
2023/03/03 09:04:20;;;;;;;80.23;76.00;;;;;;;4.82;100.00;102367.53;5000201;28;20462;-46
2023/03/03 09:06:48;;;;;;;80.30;76.80;;;;;;;4.97;100.00;102368.13;5000602;28;20919;-44
2023/03/03 09:09:16;;;;;;;74.33;70.73;;;;;;;5.09;100.00;102361.88;5000772;28;20500;-44
2023/03/03 09:11:46;;;;;;;70.40;67.10;;;;;;;5.24;100.00;102360.66;5000662;28;20461;-46
2023/03/03 09:14:15;;;;;;;72.77;69.50;;;;;;;5.31;100.00;102358.34;4999614;28;20466;-44
2023/03/03 09:16:48;;;;;;;73.20;69.90;;;;;;;5.33;100.00;102359.06;5000833;28;20441;-44
2023/03/03 09:19:25;;;;;;;77.07;73.50;;;;;;;5.39;100.00;102363.84;5001122;28;20465;-48
2023/03/03 09:21:54;;;;;;;78.33;74.83;;;;;;;5.43;100.00;102370.59;5000477;28;20512;-44
2023/03/03 09:24:26;;;;;;;75.30;71.80;;;;;;;5.45;100.00;102371.31;4999546;28;20472;-44
2023/03/03 09:26:57;;;;;;;79.13;75.73;;;;;;;5.51;100.00;102370.81;5000433;28;20501;-45
2023/03/03 09:29:27;;;;;;;79.10;75.60;;;;;;;5.55;100.00;102370.41;5000749;28;20434;-44
2023/03/03 09:31:57;;;;;;;78.77;75.00;;;;;;;5.61;100.00;102370.91;5000718;28;20510;-45
2023/03/03 09:34:35;;;;;;;77.57;73.87;;;;;;;5.71;100.00;102362.09;4999261;28;20464;-47
2023/03/03 09:37:18;;;;;;;82.00;78.33;;;;;;;5.91;100.00;102358.66;5000267;28;20437;-47
2023/03/03 09:39:49;;;;;;;84.03;80.17;;;;;;;5.97;100.00;102357.34;4999914;28;20623;-49
2023/03/03 09:42:37;;;;;;;82.83;79.10;;;;;;;6.01;100.00;102364.88;5000461;28;20501;-44
2023/03/03 09:45:48;;;;;;;83.70;79.60;;;;;;;6.17;100.00;102350.34;4999511;28;20462;-44
2023/03/03 09:48:40;;;;;;;80.40;76.73;;;;;;;6.28;100.00;102355.59;4999934;28;20511;-47
2023/03/03 09:51:19;;;;;;;81.80;78.10;;;;;;;6.38;100.00;102356.50;5000331;28;20437;-47
2023/03/03 09:54:00;;;;;;;82.80;78.90;;;;;;;6.45;100.00;102350.53;4999674;28;20496;-44
2023/03/03 09:56:34;;;;;;;80.27;76.60;;;;;;;6.56;100.00;102350.47;5000205;28;20940;-44
2023/03/03 09:59:17;;;;;;;82.30;78.70;;;;;;;6.64;100.00;102349.81;4999659;28;20529;-44
2023/03/03 10:01:57;;;;;;;79.83;76.27;;;;;;;6.72;100.00;102339.38;4999432;28;20461;-44
2023/03/03 10:04:43;;;;;;;83.73;80.10;;;;;;;6.83;100.00;102334.00;4998845;28;20839;-44
2023/03/03 10:07:38;;;;;;;79.53;75.90;;;;;;;6.95;100.00;102345.34;4999273;28;20434;-44
2023/03/03 10:10:29;;;;;;;85.27;81.43;;;;;;;7.06;100.00;102331.97;4998162;28;20452;-44
2023/03/03 10:13:09;;;;;;;79.13;75.43;;;;;;;7.12;100.00;102331.44;4998730;28;20537;-44
2023/03/03 10:15:47;;;;;;;79.87;75.97;;;;;;;7.19;100.00;102336.06;4998674;28;20935;-48
2023/03/03 10:18:28;;;;;;;83.30;79.50;;;;;;;7.12;100.00;102324.31;4998905;28;20438;-45
2023/03/03 10:21:08;;;;;;;82.90;79.17;;;;;;;7.19;100.00;102329.91;4999356;28;20430;-47
2023/03/03 10:23:54;;;;;;;83.47;79.73;;;;;;;7.34;100.00;102323.25;4998770;28;20484;-44
2023/03/03 10:26:42;;;;;;;82.60;78.67;;;;;;;7.44;100.00;102333.84;4998947;28;20519;-46
2023/03/03 10:29:32;;;;;;;86.23;81.93;;;;;;;7.59;100.00;102332.47;4999291;28;20550;-44
2023/03/03 10:32:29;;;;;;;86.87;82.77;;;;;;;7.61;100.00;102325.25;4999218;28;20461;-44
2023/03/03 10:35:18;;;;;;;84.60;80.60;;;;;;;7.58;100.00;102323.69;4983314;28;20466;-44
2023/03/03 10:37:59;;;;;;;89.37;84.57;;;;;;;7.59;100.00;102322.72;4999275;28;20434;-45
2023/03/03 10:40:34;;;;;;;80.90;77.20;;;;;;;7.51;100.00;102327.88;4998857;28;20504;-45
2023/03/03 10:43:25;;;;;;;76.30;72.10;;;;;;;7.38;100.00;102315.88;4997152;28;20468;-44
2023/03/03 10:46:27;;;;;;;64.03;60.67;;;;;;;7.33;100.00;102318.91;4998843;28;20441;-44
2023/03/03 10:49:13;;;;;;;65.43;62.13;;;;;;;7.38;100.00;102315.88;4998770;28;20445;-45
2023/03/03 10:51:52;;;;;;;64.70;61.50;;;;;;;7.46;100.00;102313.34;4998334;28;20874;-46
2023/03/03 10:54:30;;;;;;;63.30;59.97;;;;;;;7.48;100.00;102314.03;4998142;28;20884;-44
2023/03/03 10:57:03;;;;;;;60.80;57.37;;;;;;;7.48;100.00;102300.75;4998912;28;20442;-44
2023/03/03 10:59:48;;;;;;;60.63;57.50;;;;;;;7.54;100.00;102298.41;4998862;28;20474;-49
2023/03/03 11:02:21;;;;;;;59.83;56.73;;;;;;;7.68;100.00;102302.44;4998414;28;20544;-45
2023/03/03 11:05:03;;;;;;;58.80;55.80;;;;;;;7.70;100.00;102306.66;4997584;28;20462;-45
2023/03/03 11:07:36;;;;;;;60.50;57.40;;;;;;;7.78;100.00;102296.16;4998053;28;20437;-44
2023/03/03 11:10:19;;;;;;;61.20;56.77;;;;;;;7.92;100.00;102297.53;4998325;28;20499;-44
2023/03/03 11:12:58;;;;;;;57.50;54.40;;;;;;;8.07;100.00;102293.47;4998139;28;20454;-45
2023/03/03 11:15:39;;;;;;;53.80;50.93;;;;;;;8.05;100.00;102281.31;4998020;28;20429;-44
2023/03/03 11:18:25;;;;;;;55.20;52.30;;;;;;;8.19;100.00;102273.72;4998278;28;20433;-45
2023/03/03 11:21:00;;;;;;;52.07;49.23;;;;;;;8.31;100.00;102274.41;4998004;28;20446;-44